createdAt,value
2022-08-25T00:00:02.033Z,98349.49
2022-08-25T00:03:43.938Z,98349.89
2022-08-25T00:07:19.133Z,98343.91
2022-08-25T00:11:02.876Z,98341.60
2022-08-25T00:14:36.789Z,98342.09
2022-08-25T00:18:28.457Z,98341.46
2022-08-25T00:22:09.208Z,98338.55
2022-08-25T00:25:30.713Z,98336.30
2022-08-25T00:29:09.599Z,98335.98
2022-08-25T00:32:55.507Z,98338.38
2022-08-25T00:36:40.879Z,98341.55
2022-08-25T00:40:03.352Z,98341.94
2022-08-25T00:43:42.536Z,98345.48
2022-08-25T00:47:35.968Z,98339.52
2022-08-25T00:50:58.435Z,98342.55
2022-08-25T00:54:57.060Z,98346.27
2022-08-25T00:58:39.685Z,98344.86
2022-08-25T01:02:04.418Z,98348.02
2022-08-25T01:05:41.030Z,98350.31
2022-08-25T01:09:15.493Z,98348.84
2022-08-25T01:13:34.155Z,98351.28
2022-08-25T01:17:16.328Z,98348.60
2022-08-25T01:20:38.571Z,98349.11
2022-08-25T01:24:35.375Z,98341.50
2022-08-25T01:27:57.789Z,98340.57
2022-08-25T01:31:36.758Z,98339.16
2022-08-25T01:35:30.440Z,98341.50
2022-08-25T01:38:52.899Z,98341.58
2022-08-25T01:43:06.145Z,98342.26
2022-08-25T01:46:28.377Z,98337.91
2022-08-25T01:50:24.466Z,98334.16
2022-08-25T01:53:46.151Z,98333.15
2022-08-25T01:57:22.845Z,98328.84
2022-08-25T02:01:03.877Z,98331.39
2022-08-25T02:04:37.535Z,98334.23
2022-08-25T02:08:13.716Z,98325.05
2022-08-25T02:12:09.160Z,98325.98
2022-08-25T02:15:31.383Z,98325.60
2022-08-25T02:19:10.285Z,98322.31
2022-08-25T02:22:51.134Z,98321.84
2022-08-25T02:26:22.523Z,98326.22
2022-08-25T02:29:58.392Z,98323.86
2022-08-25T02:33:35.532Z,98321.59
2022-08-25T02:37:13.004Z,98320.81
2022-08-25T02:40:49.433Z,98319.39
2022-08-25T02:44:25.283Z,98319.67
2022-08-25T02:48:03.216Z,98316.89
2022-08-25T02:51:59.912Z,98312.77
2022-08-25T02:55:42.375Z,98310.34
2022-08-25T02:59:04.506Z,98308.77
2022-08-25T03:02:41.551Z,98302.99
2022-08-25T03:06:20.660Z,98302.27
2022-08-25T03:09:54.393Z,98298.34
2022-08-25T03:13:32.375Z,98295.52
2022-08-25T03:17:08.963Z,98295.25
2022-08-25T03:20:46.040Z,98295.45
2022-08-25T03:24:40.179Z,98295.45
2022-08-25T03:28:02.254Z,98291.55
2022-08-25T03:31:39.808Z,98290.79
2022-08-25T03:35:16.186Z,98284.45
2022-08-25T03:38:53.118Z,98283.14
2022-08-25T03:42:29.244Z,98281.74
2022-08-25T03:46:06.482Z,98280.26
2022-08-25T03:49:43.253Z,98281.57
2022-08-25T03:53:38.755Z,98282.42
2022-08-25T03:57:20.104Z,98283.74
2022-08-25T04:00:42.235Z,98285.60
2022-08-25T04:04:18.507Z,98291.04
2022-08-25T04:07:55.959Z,98294.76
2022-08-25T04:11:32.431Z,98297.66
2022-08-25T04:15:10.743Z,98293.77
2022-08-25T04:18:47.764Z,98289.55
2022-08-25T04:22:22.572Z,98292.80
2022-08-25T04:25:59.175Z,98293.48
2022-08-25T04:29:35.939Z,98293.18
2022-08-25T04:33:13.701Z,98294.67
2022-08-25T04:36:52.572Z,98299.52
2022-08-25T04:40:28.995Z,98294.96
2022-08-25T04:44:04.195Z,98293.80
2022-08-25T04:47:40.267Z,98295.52
2022-08-25T04:51:20.147Z,98295.31
2022-08-25T04:54:53.816Z,98297.73
2022-08-25T04:58:30.605Z,98296.40
2022-08-25T05:02:07.485Z,98291.20
2022-08-25T05:05:44.015Z,98294.80
2022-08-25T05:09:21.794Z,98291.59
2022-08-25T05:12:57.559Z,98291.55
2022-08-25T05:16:35.010Z,98294.66
2022-08-25T05:20:11.238Z,98293.86
2022-08-25T05:23:49.126Z,98292.23
2022-08-25T05:27:24.546Z,98288.69
2022-08-25T05:31:03.247Z,98288.48
2022-08-25T05:34:38.365Z,98285.61
2022-08-25T05:38:15.590Z,98283.61
2022-08-25T05:41:52.120Z,98284.35
2022-08-25T05:45:28.608Z,98286.52
2022-08-25T05:49:05.330Z,98282.58
2022-08-25T05:52:42.636Z,98282.05
2022-08-25T05:56:20.343Z,98277.73
2022-08-25T05:59:56.047Z,98279.45
2022-08-25T06:03:52.723Z,98285.77
2022-08-25T06:07:14.341Z,98279.92
2022-08-25T06:10:54.131Z,98285.77
2022-08-25T06:14:27.670Z,98286.61
2022-08-25T06:18:05.251Z,98287.55
2022-08-25T06:22:00.568Z,98292.15
2022-08-25T06:25:24.833Z,98287.51
2022-08-25T06:28:59.334Z,98287.18
2022-08-25T06:32:37.778Z,98291.80
2022-08-25T06:36:13.047Z,98293.28
2022-08-25T06:40:10.516Z,98290.05
2022-08-25T06:43:33.322Z,98289.36
2022-08-25T06:47:09.829Z,98288.09
2022-08-25T06:51:13.874Z,98291.41
2022-08-25T06:54:36.482Z,98288.31
2022-08-25T06:58:12.881Z,98288.70
2022-08-25T07:01:49.589Z,98291.15
2022-08-25T07:05:34.045Z,98291.60
2022-08-25T07:09:08.634Z,98291.43
2022-08-25T07:12:42.959Z,98286.33
2022-08-25T07:16:21.017Z,98290.11
2022-08-25T07:19:57.660Z,98291.98
2022-08-25T07:23:33.495Z,98290.63
2022-08-25T07:27:09.954Z,98296.83
2022-08-25T07:30:51.854Z,98293.77
2022-08-25T07:34:42.618Z,98292.94
2022-08-25T07:38:10.220Z,98289.27
2022-08-25T07:41:43.472Z,98292.36
2022-08-25T07:45:21.974Z,98294.19
2022-08-25T07:48:56.887Z,98291.84
2022-08-25T07:52:55.442Z,98286.30
2022-08-25T07:56:36.364Z,98287.43
2022-08-25T08:00:18.127Z,98285.34
2022-08-25T08:03:50.721Z,98287.16
2022-08-25T08:07:22.938Z,98288.48
2022-08-25T08:11:10.679Z,98287.45
2022-08-25T08:14:33.263Z,98286.66
2022-08-25T08:18:11.885Z,98287.79
2022-08-25T08:21:48.735Z,98295.01
2022-08-25T08:25:26.785Z,98291.92
2022-08-25T08:29:01.269Z,98289.08
2022-08-25T08:33:12.840Z,98287.65
2022-08-25T08:36:57.642Z,98288.33
2022-08-25T08:40:20.855Z,98287.92
2022-08-25T08:44:42.158Z,98288.80
2022-08-25T08:48:07.131Z,98288.35
2022-08-25T08:51:54.254Z,98284.33
2022-08-25T08:55:52.301Z,98283.21
2022-08-25T08:59:30.326Z,98277.77
2022-08-25T09:03:09.562Z,98279.33
2022-08-25T09:06:51.747Z,98276.90
2022-08-25T09:10:44.334Z,98274.82
2022-08-25T09:14:12.866Z,98271.45
2022-08-25T09:18:13.343Z,98271.89
2022-08-25T09:22:33.545Z,98272.23
2022-08-25T09:26:40.086Z,98266.08
2022-08-25T09:30:08.020Z,98268.53
2022-08-25T09:33:39.659Z,98269.72
2022-08-25T09:37:16.777Z,98265.05
2022-08-25T09:40:57.701Z,98265.35
2022-08-25T09:44:49.736Z,98268.00
2022-08-25T09:48:22.469Z,98267.66
2022-08-25T09:51:48.403Z,98264.86
2022-08-25T09:55:32.389Z,98260.32
2022-08-25T09:59:34.670Z,98258.96
2022-08-25T10:03:05.901Z,98254.79
2022-08-25T10:06:43.830Z,98251.96
2022-08-25T10:10:23.322Z,98251.79
2022-08-25T10:13:51.914Z,98249.77
2022-08-25T10:17:31.967Z,98252.16
2022-08-25T10:21:15.942Z,98246.23
2022-08-25T10:24:44.065Z,98245.55
2022-08-25T10:28:41.532Z,98246.43
2022-08-25T10:32:10.245Z,98244.17
2022-08-25T10:35:55.238Z,98240.39
2022-08-25T10:39:55.658Z,98243.92
2022-08-25T10:44:06.096Z,98239.52
2022-08-25T10:48:14.807Z,98240.83
2022-08-25T10:52:03.713Z,98236.50
2022-08-25T10:55:54.751Z,98229.09
2022-08-25T10:59:39.769Z,98223.87
2022-08-25T11:03:43.940Z,98224.27
2022-08-25T11:07:19.671Z,98218.93
2022-08-25T11:10:53.022Z,98217.01
2022-08-25T11:14:40.065Z,98216.98
2022-08-25T11:18:14.805Z,98214.32
2022-08-25T11:21:46.450Z,98213.75
2022-08-25T11:25:35.039Z,98205.02
2022-08-25T11:29:18.163Z,98204.85
2022-08-25T11:32:44.607Z,98200.05
2022-08-25T11:36:37.555Z,98192.52
2022-08-25T11:40:19.927Z,98187.94
2022-08-25T11:44:11.616Z,98191.32
2022-08-25T11:47:56.529Z,98185.55
2022-08-25T11:51:44.530Z,98184.78
2022-08-25T11:55:27.259Z,98187.56
2022-08-25T11:58:51.763Z,98179.48
2022-08-25T12:02:40.404Z,98183.33
2022-08-25T12:06:17.047Z,98179.23
2022-08-25T12:09:51.127Z,98172.16
2022-08-25T12:13:40.786Z,98177.02
2022-08-25T12:17:19.229Z,98174.27
2022-08-25T12:20:53.605Z,98169.20
2022-08-25T12:24:25.152Z,98164.48
2022-08-25T12:28:04.934Z,98162.80
2022-08-25T12:31:51.232Z,98165.35
2022-08-25T12:35:40.520Z,98158.91
2022-08-25T12:39:24.396Z,98158.80
2022-08-25T12:42:47.302Z,98153.36
2022-08-25T12:46:25.811Z,98155.47
2022-08-25T12:50:19.397Z,98155.54
2022-08-25T12:53:51.084Z,98157.48
2022-08-25T12:57:50.690Z,98156.50
2022-08-25T13:01:51.158Z,98150.73
2022-08-25T13:05:22.568Z,98151.36
2022-08-25T13:09:20.612Z,98148.84
2022-08-25T13:13:10.753Z,98145.89
2022-08-25T13:16:57.417Z,98145.95
2022-08-25T13:20:26.789Z,98146.88
2022-08-25T13:24:20.602Z,98144.38
2022-08-25T13:27:42.122Z,98139.08
2022-08-25T13:31:22.328Z,98136.13
2022-08-25T13:35:08.902Z,98134.56
2022-08-25T13:38:32.291Z,98134.71
2022-08-25T13:42:14.520Z,98134.55
2022-08-25T13:45:47.668Z,98133.19
2022-08-25T13:49:26.301Z,98129.89
2022-08-25T13:53:04.176Z,98123.42
2022-08-25T13:57:05.542Z,98124.79
2022-08-25T14:00:43.442Z,98125.97
2022-08-25T14:04:25.965Z,98125.63
2022-08-25T14:08:09.264Z,98122.35
2022-08-25T14:11:43.992Z,98112.27
2022-08-25T14:15:18.520Z,98107.44
2022-08-25T14:18:55.105Z,98105.32
2022-08-25T14:22:29.243Z,98094.86
2022-08-25T14:26:06.421Z,98087.52
2022-08-25T14:29:43.378Z,98086.25
2022-08-25T14:33:23.577Z,98080.18
2022-08-25T14:37:20.063Z,98080.96
2022-08-25T14:40:42.069Z,98079.27
2022-08-25T14:44:18.536Z,98082.46
2022-08-25T14:48:03.899Z,98084.04
2022-08-25T14:51:33.870Z,98079.02
2022-08-25T14:55:10.597Z,98077.95
2022-08-25T14:59:04.993Z,98073.67
2022-08-25T15:02:30.553Z,98069.90
2022-08-25T15:06:05.163Z,98070.69
2022-08-25T15:09:40.309Z,98071.04
2022-08-25T15:13:17.358Z,98070.80
2022-08-25T15:16:56.830Z,98068.60
2022-08-25T15:20:30.478Z,98062.08
2022-08-25T15:24:27.978Z,98060.83
2022-08-25T15:28:10.088Z,98058.03
2022-08-25T15:31:34.106Z,98060.32
2022-08-25T15:35:08.820Z,98056.73
2022-08-25T15:39:05.386Z,98056.71
2022-08-25T15:42:46.332Z,98057.24
2022-08-25T15:46:09.078Z,98054.95
2022-08-25T15:50:08.744Z,98052.60
2022-08-25T15:53:33.502Z,98049.31
2022-08-25T15:57:26.705Z,98046.36
2022-08-25T16:00:56.241Z,98042.97
2022-08-25T16:04:45.842Z,98043.42
2022-08-25T16:08:09.423Z,98040.70
2022-08-25T16:11:44.304Z,98034.55
2022-08-25T16:15:23.755Z,98031.07
2022-08-25T16:18:58.410Z,98027.08
2022-08-25T16:22:34.428Z,98028.19
2022-08-25T16:26:12.964Z,98026.56
2022-08-25T16:29:48.440Z,98024.27
2022-08-25T16:33:24.784Z,98025.48
2022-08-25T16:37:02.993Z,98026.48
2022-08-25T16:40:42.554Z,98025.08
2022-08-25T16:44:34.578Z,98027.93
2022-08-25T16:48:15.014Z,98023.42
2022-08-25T16:51:38.702Z,98027.27
2022-08-25T16:55:14.204Z,98031.65
2022-08-25T16:59:01.380Z,98030.65
2022-08-25T17:02:47.233Z,98028.91
2022-08-25T17:06:29.759Z,98030.68
2022-08-25T17:09:53.175Z,98032.36
2022-08-25T17:13:29.318Z,98028.52
2022-08-25T17:17:07.067Z,98024.42
2022-08-25T17:20:46.875Z,98021.93
2022-08-25T17:24:37.558Z,98024.11
2022-08-25T17:28:02.846Z,98025.83
2022-08-25T17:31:40.252Z,98023.30
2022-08-25T17:35:15.704Z,98021.86
2022-08-25T17:39:14.067Z,98019.58
2022-08-25T17:42:35.706Z,98021.88
2022-08-25T17:46:12.955Z,98019.77
2022-08-25T17:49:49.190Z,98014.67
2022-08-25T17:53:26.451Z,98014.61
2022-08-25T17:57:02.983Z,98019.86
2022-08-25T18:00:44.022Z,98022.88
2022-08-25T18:04:17.996Z,98022.73
2022-08-25T18:07:54.660Z,98023.54
2022-08-25T18:11:30.265Z,98028.06
2022-08-25T18:15:08.119Z,98030.27
2022-08-25T18:18:44.391Z,98028.48
2022-08-25T18:22:20.252Z,98025.13
2022-08-25T18:26:01.025Z,98022.50
2022-08-25T18:29:34.083Z,98028.66
2022-08-25T18:33:11.119Z,98033.29
2022-08-25T18:36:48.836Z,98035.08
2022-08-25T18:40:25.444Z,98034.18
2022-08-25T18:44:20.429Z,98027.22
2022-08-25T18:47:42.839Z,98029.20
2022-08-25T18:51:19.455Z,98031.23
2022-08-25T18:54:55.997Z,98033.52
2022-08-25T18:58:36.084Z,98037.02
2022-08-25T19:02:28.533Z,98040.27
2022-08-25T19:05:52.829Z,98042.80
2022-08-25T19:09:26.934Z,98036.25
2022-08-25T19:13:07.996Z,98033.98
2022-08-25T19:16:43.631Z,98035.77
2022-08-25T19:20:18.103Z,98033.36
2022-08-25T19:23:54.414Z,98031.58
2022-08-25T19:27:51.617Z,98029.19
2022-08-25T19:31:34.701Z,98028.27
2022-08-25T19:34:56.673Z,98033.21
2022-08-25T19:38:35.553Z,98026.72
2022-08-25T19:42:36.683Z,98029.28
2022-08-25T19:45:52.550Z,98029.42
2022-08-25T19:49:34.502Z,98032.14
2022-08-25T19:53:06.544Z,98029.09
2022-08-25T19:56:54.974Z,98029.48
2022-08-25T20:00:29.187Z,98030.44
2022-08-25T20:03:56.994Z,98032.75
2022-08-25T20:07:33.641Z,98032.35
2022-08-25T20:11:09.950Z,98033.27
2022-08-25T20:14:48.651Z,98034.81
2022-08-25T20:18:23.410Z,98036.52
2022-08-25T20:22:22.499Z,98042.63
2022-08-25T20:25:47.528Z,98037.42
2022-08-25T20:29:23.713Z,98034.52
2022-08-25T20:33:22.561Z,98038.36
2022-08-25T20:36:49.661Z,98036.25
2022-08-25T20:40:25.419Z,98035.69
2022-08-25T20:44:01.490Z,98036.80
2022-08-25T20:47:55.640Z,98035.15
2022-08-25T20:51:18.732Z,98029.34
2022-08-25T20:54:55.228Z,98026.61
2022-08-25T20:58:31.045Z,98020.54
2022-08-25T21:02:07.964Z,98018.48
2022-08-25T21:06:08.925Z,98013.23
2022-08-25T21:09:30.238Z,98014.89
2022-08-25T21:13:26.871Z,98015.33
2022-08-25T21:16:49.558Z,98015.23
2022-08-25T21:20:25.632Z,98010.79
2022-08-25T21:24:24.557Z,98010.15
2022-08-25T21:27:46.194Z,98007.52
2022-08-25T21:31:23.624Z,98012.17
2022-08-25T21:34:59.724Z,98013.27
2022-08-25T21:38:39.960Z,98016.06
2022-08-25T21:42:13.385Z,98008.52
2022-08-25T21:45:50.357Z,98005.43
2022-08-25T21:49:27.026Z,98003.80
2022-08-25T21:53:08.176Z,98004.93
2022-08-25T21:57:03.407Z,98000.33
2022-08-25T22:00:44.312Z,98002.50
2022-08-25T22:04:08.046Z,98000.78
2022-08-25T22:07:44.015Z,98001.43
2022-08-25T22:11:39.037Z,97998.16
2022-08-25T22:15:00.943Z,97993.95
2022-08-25T22:18:56.519Z,97992.23
2022-08-25T22:22:21.058Z,97998.95
2022-08-25T22:25:58.223Z,97999.78
2022-08-25T22:29:52.221Z,97999.04
2022-08-25T22:33:15.582Z,97997.63
2022-08-25T22:36:51.760Z,97994.30
2022-08-25T22:40:29.442Z,97990.88
2022-08-25T22:44:25.143Z,97988.04
2022-08-25T22:47:47.127Z,97985.84
2022-08-25T22:51:26.697Z,97981.81
2022-08-25T22:55:00.667Z,97985.73
2022-08-25T22:58:38.435Z,97983.05
2022-08-25T23:02:13.958Z,97976.66
2022-08-25T23:05:50.928Z,97977.67
2022-08-25T23:09:46.507Z,97978.08
2022-08-25T23:13:08.799Z,97977.35
2022-08-25T23:16:44.862Z,97971.26
2022-08-25T23:20:45.245Z,97968.13
2022-08-25T23:24:10.995Z,97969.60
2022-08-25T23:27:45.322Z,97972.80
2022-08-25T23:31:42.350Z,97966.77
2022-08-25T23:35:05.675Z,97968.67
2022-08-25T23:38:44.322Z,97959.91
2022-08-25T23:42:21.593Z,97961.48
2022-08-25T23:45:54.945Z,97955.70
2022-08-25T23:49:50.530Z,97954.73
2022-08-25T23:53:15.275Z,97949.77
2022-08-25T23:56:52.281Z,97950.80
